Time;durP1;ratioP1;P1;durP2;ratioP2;P2;SDS_P1;SDS_P2;PMS_P1;PMS_P2;Temp;Humidity;BMP_temperature;BMP_pressure;BME280_temperature;BME280_humidity;BME280_pressure;Samples;Min_cycle;Max_cycle;Signal;HPM_P1;HPM_P2
2020/12/25 00:02:17;;;;;;;10.02;4.05;;;;;;;2.27;96.59;101511.31;6226267;28;20081;-70
2020/12/25 00:05:19;;;;;;;7.22;3.92;;;;;;;2.27;96.66;101511.31;6225249;28;20239;-68
2020/12/25 00:08:20;;;;;;;12.30;4.65;;;;;;;2.30;97.05;101516.47;6230992;28;20103;-68
2020/12/25 00:11:21;;;;;;;10.85;4.10;;;;;;;2.32;95.67;101521.66;6243626;28;20059;-68
2020/12/25 00:14:22;;;;;;;9.82;3.70;;;;;;;2.50;93.25;101525.00;6246625;28;20045;-69
2020/12/25 00:17:23;;;;;;;7.65;3.40;;;;;;;2.33;94.18;101515.63;6240796;28;20049;-70
2020/12/25 00:20:24;;;;;;;7.72;3.83;;;;;;;2.19;95.55;101523.50;6249348;28;20049;-69
2020/12/25 00:23:25;;;;;;;22.58;5.63;;;;;;;2.13;96.85;101526.09;6240895;28;20064;-70
2020/12/25 00:26:28;;;;;;;11.90;4.50;;;;;;;2.22;95.92;101518.25;6227143;28;20054;-70
2020/12/25 00:29:29;;;;;;;9.52;3.75;;;;;;;2.08;96.13;101520.94;6224493;28;20116;-71
2020/12/25 00:32:30;;;;;;;8.40;3.58;;;;;;;2.26;94.18;101525.16;6224722;28;20411;-70
2020/12/25 00:35:32;;;;;;;10.27;3.60;;;;;;;2.10;95.53;101528.72;6224666;28;20049;-71
2020/12/25 00:38:33;;;;;;;9.07;3.75;;;;;;;2.09;95.71;101532.16;6238986;28;20041;-71
2020/12/25 00:41:33;;;;;;;11.77;3.45;;;;;;;2.04;96.68;101534.78;6248987;28;20137;-70
2020/12/25 00:44:34;;;;;;;7.85;3.47;;;;;;;2.13;93.95;101539.06;6248570;28;20042;-69
2020/12/25 00:47:35;;;;;;;9.48;3.90;;;;;;;2.15;93.37;101539.94;6248764;28;20053;-69
2020/12/25 00:50:39;;;;;;;8.60;3.17;;;;;;;2.10;91.95;101541.69;6248430;28;20057;-69
2020/12/25 00:53:40;;;;;;;8.68;3.47;;;;;;;2.01;90.78;101537.41;6249047;28;20128;-70
2020/12/25 00:56:41;;;;;;;7.47;3.95;;;;;;;1.95;94.01;101537.44;6248595;28;20494;-69
2020/12/25 00:59:42;;;;;;;9.02;3.35;;;;;;;1.93;92.43;101547.81;6248143;28;20052;-69
2020/12/25 01:02:42;;;;;;;10.02;3.22;;;;;;;1.90;92.34;101541.78;6248724;28;20403;-68
2020/12/25 01:05:44;;;;;;;13.65;3.30;;;;;;;1.88;92.49;101548.72;6248356;28;20049;-70
2020/12/25 01:08:47;;;;;;;10.85;3.58;;;;;;;1.97;91.18;101557.31;6247798;28;20049;-70
2020/12/25 01:11:47;;;;;;;8.30;4.00;;;;;;;1.89;91.98;101561.66;6248122;28;20045;-69
2020/12/25 01:14:48;;;;;;;8.77;3.35;;;;;;;1.88;90.93;101567.72;6248613;28;20049;-70
2020/12/25 01:17:49;;;;;;;7.25;3.40;;;;;;;1.85;93.06;101566.84;6247980;28;20053;-70
2020/12/25 01:20:51;;;;;;;10.98;3.50;;;;;;;1.83;91.55;101569.47;6247909;28;20049;-70
2020/12/25 01:23:52;;;;;;;8.55;2.95;;;;;;;1.89;90.77;101569.44;6247267;28;20049;-70
2020/12/25 01:26:53;;;;;;;11.30;3.75;;;;;;;1.82;91.88;101574.63;6247553;28;20513;-69
2020/12/25 01:29:53;;;;;;;11.48;4.00;;;;;;;1.82;91.85;101585.00;6247601;28;20102;-69
2020/12/25 01:32:54;;;;;;;9.30;3.58;;;;;;;1.95;92.21;101582.38;6247384;28;20049;-70
2020/12/25 01:35:56;;;;;;;8.93;3.05;;;;;;;2.02;90.09;101585.78;6247733;28;20446;-69
2020/12/25 01:38:57;;;;;;;5.38;3.33;;;;;;;1.89;92.32;101590.16;6247225;28;20057;-70
2020/12/25 01:41:57;;;;;;;9.57;3.47;;;;;;;1.85;92.26;101596.22;6247809;28;20056;-69
2020/12/25 01:44:58;;;;;;;10.15;2.97;;;;;;;1.89;90.54;101592.75;6247445;28;20057;-69
2020/12/25 01:48:00;;;;;;;6.40;2.75;;;;;;;1.92;90.84;101600.53;6247385;28;20049;-70
2020/12/25 01:51:02;;;;;;;10.10;3.35;;;;;;;1.86;91.18;101604.84;6246959;28;20049;-69
2020/12/25 01:54:03;;;;;;;10.10;3.63;;;;;;;1.95;90.09;101602.22;6247635;28;20049;-71
2020/12/25 01:57:04;;;;;;;6.40;3.40;;;;;;;1.87;90.19;101601.41;6246890;28;20053;-70
2020/12/25 02:00:06;;;;;;;8.57;3.45;;;;;;;1.94;90.18;101606.56;6246435;28;20052;-69
2020/12/25 02:03:07;;;;;;;6.78;3.10;;;;;;;1.89;90.72;101605.72;6247371;28;20049;-69
2020/12/25 02:06:08;;;;;;;5.38;2.75;;;;;;;1.85;89.90;101603.13;6246395;28;20595;-70
2020/12/25 02:09:09;;;;;;;9.95;3.10;;;;;;;1.86;88.88;101600.53;6246891;28;20493;-69
2020/12/25 02:12:10;;;;;;;7.93;3.00;;;;;;;1.88;89.25;101596.22;6246759;28;20060;-71
2020/12/25 02:15:11;;;;;;;5.47;2.72;;;;;;;1.88;88.54;101609.19;6247150;28;20045;-69
2020/12/25 02:18:12;;;;;;;11.07;3.15;;;;;;;1.98;88.04;101600.50;6246550;28;20053;-69
2020/12/25 02:21:14;;;;;;;8.52;3.72;;;;;;;1.97;87.49;101608.28;6246253;28;20060;-70
2020/12/25 02:24:15;;;;;;;7.53;3.30;;;;;;;1.71;89.23;101617.00;6246921;28;20537;-71
2020/12/25 02:27:15;;;;;;;5.25;2.83;;;;;;;1.89;88.99;101629.03;6246394;28;20057;-71
2020/12/25 02:30:16;;;;;;;7.70;2.50;;;;;;;1.86;89.22;101631.63;6246228;28;20115;-71
2020/12/25 02:33:17;;;;;;;10.23;3.05;;;;;;;1.72;91.15;101631.66;6246360;28;20143;-71
2020/12/25 02:36:19;;;;;;;7.90;2.80;;;;;;;1.95;90.37;101639.41;6246576;28;20053;-70
2020/12/25 02:39:20;;;;;;;5.82;2.47;;;;;;;1.87;87.96;101628.19;6246154;28;20115;-71
2020/12/25 02:42:21;;;;;;;3.65;2.67;;;;;;;1.88;89.59;101639.41;6246701;28;20054;-71
2020/12/25 02:45:22;;;;;;;5.07;2.13;;;;;;;1.97;87.75;101636.78;6246273;28;20099;-71
2020/12/25 02:48:23;;;;;;;7.60;2.30;;;;;;;1.84;87.71;101627.34;6246427;28;20050;-71
2020/12/25 02:51:24;;;;;;;4.18;2.00;;;;;;;1.89;87.07;101639.41;6246042;28;20049;-70
2020/12/25 02:54:25;;;;;;;10.10;2.03;;;;;;;1.76;89.66;101635.13;6246332;28;20045;-71
2020/12/25 02:57:26;;;;;;;3.97;1.77;;;;;;;1.76;89.47;101640.31;6246289;28;20056;-71
2020/12/25 03:00:27;;;;;;;4.60;2.15;;;;;;;1.80;88.59;101646.34;6245857;28;20049;-72
2020/12/25 03:03:28;;;;;;;7.28;2.00;;;;;;;1.87;87.72;101643.75;6246171;28;20049;-71
2020/12/25 03:06:29;;;;;;;6.43;2.25;;;;;;;1.85;87.43;101647.19;6246098;28;20192;-71
2020/12/25 03:09:30;;;;;;;3.67;2.35;;;;;;;1.83;88.18;101649.81;6245928;28;20053;-71
2020/12/25 03:12:31;;;;;;;5.22;2.28;;;;;;;1.81;88.55;101646.34;6245493;28;20513;-71
2020/12/25 03:15:32;;;;;;;5.60;2.63;;;;;;;1.73;90.01;101648.97;6246328;28;20049;-71
2020/12/25 03:18:32;;;;;;;7.75;2.63;;;;;;;1.83;89.35;101654.13;6246220;28;20054;-71
2020/12/25 03:21:34;;;;;;;6.10;2.53;;;;;;;1.92;89.29;101656.69;6245548;28;20042;-71
2020/12/25 03:24:35;;;;;;;7.70;3.08;;;;;;;1.72;90.52;101652.41;6246169;28;20046;-71
2020/12/25 03:27:36;;;;;;;7.13;3.10;;;;;;;1.75;90.43;101656.72;6245641;28;20560;-71
2020/12/25 03:30:37;;;;;;;8.23;2.85;;;;;;;1.81;88.94;101661.88;6245872;28;20119;-71
2020/12/25 03:33:37;;;;;;;15.23;2.85;;;;;;;1.76;88.25;101658.44;6245990;28;20124;-71
2020/12/25 03:36:39;;;;;;;9.20;2.70;;;;;;;1.73;89.30;101668.84;6245575;28;20073;-71
2020/12/25 03:39:40;;;;;;;5.60;2.58;;;;;;;1.79;89.42;101674.00;6245597;28;20061;-71
2020/12/25 03:42:41;;;;;;;4.40;2.63;;;;;;;1.53;89.65;101674.88;6245541;28;20457;-71
2020/12/25 03:45:42;;;;;;;9.05;3.47;;;;;;;1.53;90.89;101676.63;6221576;28;20050;-71
2020/12/25 03:48:42;;;;;;;7.70;3.17;;;;;;;1.55;89.54;101682.69;6225564;28;20054;-72
2020/12/25 03:51:44;;;;;;;5.88;2.83;;;;;;;1.56;88.52;101684.41;6225609;28;20050;-72
2020/12/25 03:54:45;;;;;;;10.48;3.05;;;;;;;1.77;87.67;101693.84;6225754;28;20046;-71
2020/12/25 03:57:46;;;;;;;5.45;2.63;;;;;;;1.43;89.11;101701.66;6249396;28;20138;-71
2020/12/25 04:00:47;;;;;;;10.13;3.28;;;;;;;1.61;89.55;101702.53;6249860;28;20072;-71
2020/12/25 04:03:47;;;;;;;7.43;3.10;;;;;;;1.43;89.29;101700.81;6250190;28;20045;-71
2020/12/25 04:06:49;;;;;;;6.80;2.90;;;;;;;1.54;89.13;101709.41;6249902;28;20552;-71
2020/12/25 04:09:50;;;;;;;9.05;3.05;;;;;;;1.57;87.89;101703.38;6249852;28;20053;-71
2020/12/25 04:12:51;;;;;;;7.50;3.22;;;;;;;1.27;90.17;101708.59;6249734;28;20064;-71
2020/12/25 04:15:52;;;;;;;10.68;3.08;;;;;;;1.45;89.00;101709.44;6247666;28;20077;-71
2020/12/25 04:18:52;;;;;;;9.85;3.60;;;;;;;1.28;89.91;101719.81;6241267;28;20238;-71
2020/12/25 04:21:54;;;;;;;14.23;3.65;;;;;;;1.36;91.20;101717.19;6249595;28;20061;-71
2020/12/25 04:24:55;;;;;;;10.27;3.67;;;;;;;1.36;90.03;101706.84;6249863;28;20575;-71
2020/12/25 04:27:56;;;;;;;6.97;2.90;;;;;;;1.43;88.30;101713.75;6249330;28;20049;-71
2020/12/25 04:30:56;;;;;;;11.00;3.88;;;;;;;1.23;88.93;101716.34;6249320;28;20057;-71
2020/12/25 04:33:57;;;;;;;11.00;3.55;;;;;;;1.31;88.93;101724.09;6249460;28;20056;-71
2020/12/25 04:36:59;;;;;;;8.50;3.90;;;;;;;1.19;91.12;101724.97;6246981;28;20050;-71
2020/12/25 04:40:00;;;;;;;8.43;3.60;;;;;;;1.10;91.56;101715.47;6242621;28;20427;-71
2020/12/25 04:43:01;;;;;;;10.07;4.75;;;;;;;1.11;91.99;101717.19;6249304;28;20091;-71
2020/12/25 04:46:03;;;;;;;5.88;3.90;;;;;;;1.20;91.19;101719.78;6248771;28;20095;-71
2020/12/25 04:49:04;;;;;;;16.35;3.70;;;;;;;1.29;90.53;101715.47;6249020;28;20049;-71
2020/12/25 04:52:06;;;;;;;16.08;4.40;;;;;;;1.24;91.81;101728.44;6248869;28;20049;-71
2020/12/25 04:55:07;;;;;;;8.63;4.28;;;;;;;1.25;91.64;101732.75;6248999;28;20045;-71
2020/12/25 04:58:07;;;;;;;9.55;4.78;;;;;;;1.45;89.17;101741.41;6248565;28;20049;-71
2020/12/25 05:01:10;;;;;;;10.50;3.67;;;;;;;1.33;90.43;101731.03;6248121;28;20052;-71
2020/12/25 05:04:18;;;;;;;11.68;3.45;;;;;;;1.31;90.48;101734.47;6224338;28;20046;-71
2020/12/25 05:07:19;;;;;;;8.38;3.75;;;;;;;1.37;90.49;101737.94;6223730;28;20050;-71
2020/12/25 05:10:20;;;;;;;12.43;4.25;;;;;;;1.32;90.27;101741.34;6223789;28;20108;-71
2020/12/25 05:13:21;;;;;;;10.35;3.58;;;;;;;1.16;92.07;101743.09;6223973;28;20499;-71
2020/12/25 05:16:23;;;;;;;9.15;3.30;;;;;;;1.22;91.46;101743.09;6263270;23;20096;-72
2020/12/25 05:19:26;;;;;;;5.80;3.13;;;;;;;1.09;91.43;101755.16;6248101;28;20458;-72
2020/12/25 05:22:28;;;;;;;9.60;3.58;;;;;;;1.10;92.35;101750.84;6248223;28;20136;-72
2020/12/25 05:25:28;;;;;;;9.07;4.03;;;;;;;0.87;92.46;101758.56;6225642;28;20119;-72
2020/12/25 05:28:29;;;;;;;8.82;4.30;;;;;;;0.80;93.71;101762.84;6223406;28;20049;-72
2020/12/25 05:31:30;;;;;;;9.35;3.70;;;;;;;0.82;92.85;101768.00;6228341;28;20053;-72
2020/12/25 05:34:33;;;;;;;13.45;4.15;;;;;;;0.72;93.97;101772.28;6248050;28;20045;-72
2020/12/25 05:37:37;;;;;;;12.35;4.72;;;;;;;0.69;94.61;101778.34;6247718;28;20053;-72
2020/12/25 05:40:41;;;;;;;8.13;3.88;;;;;;;0.64;94.06;101782.63;6247266;28;20160;-73
2020/12/25 05:43:47;;;;;;;9.18;4.45;;;;;;;0.61;95.02;101789.50;6247746;28;20136;-73
2020/12/25 05:46:48;;;;;;;16.60;4.68;;;;;;;0.69;93.70;101785.22;6247609;28;20046;-73
2020/12/25 05:49:49;;;;;;;10.75;4.50;;;;;;;0.54;93.74;101790.31;6247255;28;20045;-72
2020/12/25 05:52:53;;;;;;;14.15;4.68;;;;;;;0.59;94.89;101801.53;6247792;28;20057;-73
2020/12/25 05:55:54;;;;;;;14.18;4.47;;;;;;;0.65;94.57;101797.28;6247120;28;20106;-72
2020/12/25 05:58:57;;;;;;;12.98;4.25;;;;;;;0.48;94.01;101796.34;6247386;28;20057;-72
2020/12/25 06:01:59;;;;;;;12.52;4.15;;;;;;;0.44;94.67;101808.38;6247248;28;20053;-72
2020/12/25 06:05:01;;;;;;;24.73;5.22;;;;;;;0.48;94.75;101804.94;6247243;28;20461;-73
2020/12/25 06:08:14;;;;;;;16.02;5.18;;;;;;;0.37;95.38;101808.34;6247021;28;20103;-72
2020/12/25 06:11:16;;;;;;;17.17;6.22;;;;;;;0.34;95.53;101814.34;6247114;28;20060;-74
2020/12/25 06:14:17;;;;;;;14.45;5.63;;;;;;;0.30;96.88;101825.53;6247139;28;20482;-72
2020/12/25 06:17:21;;;;;;;16.85;6.03;;;;;;;0.36;97.21;101825.56;6246802;28;20056;-72
2020/12/25 06:20:25;;;;;;;12.00;4.95;;;;;;;0.28;97.24;101827.25;6246750;28;20053;-73
2020/12/25 06:23:30;;;;;;;12.60;5.53;;;;;;;0.28;97.15;101832.44;6246996;28;20052;-73
2020/12/25 06:26:31;;;;;;;12.68;4.93;;;;;;;0.30;96.71;101829.84;6246721;28;20045;-72
2020/12/25 06:29:32;;;;;;;19.58;5.28;;;;;;;0.43;95.86;101844.56;6246617;28;20056;-73
2020/12/25 06:32:33;;;;;;;14.35;5.47;;;;;;;0.23;95.92;101850.50;6246568;28;20132;-73
2020/12/25 06:35:37;;;;;;;12.63;5.43;;;;;;;0.24;96.93;101852.22;6246774;28;20041;-72
2020/12/25 06:38:43;;;;;;;15.07;5.75;;;;;;;0.25;96.92;101853.94;6246061;28;20491;-73
2020/12/25 06:41:44;;;;;;;20.17;5.30;;;;;;;0.34;95.81;101855.72;6246760;28;20049;-73
2020/12/25 06:44:49;;;;;;;12.13;5.15;;;;;;;0.22;96.25;101860.81;6246652;28;20049;-73
2020/12/25 06:47:50;;;;;;;17.52;6.45;;;;;;;0.10;96.79;101863.31;6246405;28;20049;-73
2020/12/25 06:50:53;;;;;;;13.73;6.20;;;;;;;0.20;97.36;101860.81;6246162;28;20049;-72
2020/12/25 06:53:58;;;;;;;22.52;7.10;;;;;;;-0.01;97.06;101866.66;6246658;28;20041;-72
2020/12/25 06:56:59;;;;;;;23.52;6.53;;;;;;;-0.11;97.84;101864.84;6245990;28;20498;-73
2020/12/25 07:00:04;;;;;;;22.08;6.80;;;;;;;-0.11;98.23;101874.34;6246256;28;20131;-73
2020/12/25 07:03:10;;;;;;;20.80;6.93;;;;;;;-0.02;97.36;101888.19;6245965;28;20481;-73
2020/12/25 07:06:13;;;;;;;18.55;6.72;;;;;;;-0.06;97.98;101883.84;6246265;28;20464;-73
2020/12/25 07:09:14;;;;;;;24.67;7.75;;;;;;;-0.16;98.16;101884.63;6245849;28;20486;-73
2020/12/25 07:12:18;;;;;;;15.02;6.65;;;;;;;-0.13;99.57;101888.97;6246621;28;20061;-73
2020/12/25 07:15:19;;;;;;;12.55;6.13;;;;;;;-0.18;99.69;101891.50;6246131;28;20050;-73
2020/12/25 07:18:20;;;;;;;18.48;7.07;;;;;;;-0.12;100.00;101895.84;6246120;28;20084;-73
2020/12/25 07:21:21;;;;;;;16.60;7.00;;;;;;;-0.10;100.00;101889.84;6247300;28;20055;-72
2020/12/25 07:24:23;;;;;;;12.40;6.50;;;;;;;-0.09;100.00;101895.88;6251282;28;20777;-73
2020/12/25 07:27:24;;;;;;;22.05;7.45;;;;;;;-0.13;100.00;101897.56;6250832;28;20095;-73
2020/12/25 07:30:24;;;;;;;14.45;7.20;;;;;;;-0.14;100.00;101893.25;6250183;28;20140;-73
2020/12/25 07:33:25;;;;;;;18.63;7.18;;;;;;;-0.13;100.00;101899.28;6251021;28;20059;-73
2020/12/25 07:36:26;;;;;;;15.65;6.80;;;;;;;-0.11;100.00;101900.16;6250515;28;20179;-73
2020/12/25 07:39:30;;;;;;;17.40;6.93;;;;;;;-0.13;100.00;101897.56;6250400;28;20094;-73
2020/12/25 07:42:30;;;;;;;17.88;7.60;;;;;;;-0.21;100.00;101894.06;6250893;28;20049;-73
2020/12/25 07:45:35;;;;;;;23.60;6.95;;;;;;;-0.29;100.00;101900.84;6250608;28;20049;-73
2020/12/25 07:48:36;;;;;;;21.63;6.40;;;;;;;-0.34;100.00;101907.69;6250040;28;20057;-73
2020/12/25 07:51:37;;;;;;;18.70;7.00;;;;;;;-0.40;100.00;101916.25;6250619;28;20055;-73
2020/12/25 07:54:40;;;;;;;18.17;7.38;;;;;;;-0.42;100.00;101925.69;6250455;28;20052;-72
2020/12/25 07:57:42;;;;;;;16.63;6.43;;;;;;;-0.34;100.00;101930.94;6250261;28;20045;-73
2020/12/25 08:00:43;;;;;;;15.32;7.03;;;;;;;-0.37;100.00;101936.06;6249818;28;20045;-72
2020/12/25 08:03:44;;;;;;;22.13;7.30;;;;;;;-0.36;100.00;101924.91;6250103;28;20053;-73
2020/12/25 08:06:45;;;;;;;19.10;7.05;;;;;;;-0.30;100.00;101930.13;6250018;28;20049;-72
2020/12/25 08:09:47;;;;;;;18.48;7.18;;;;;;;-0.30;100.00;101932.69;6249824;28;20049;-73
2020/12/25 08:12:50;;;;;;;18.00;7.05;;;;;;;-0.32;100.00;101939.56;6250219;28;20486;-73
2020/12/25 08:15:51;;;;;;;17.15;6.35;;;;;;;-0.31;100.00;101937.00;6249580;28;20064;-73
2020/12/25 08:18:52;;;;;;;14.68;5.15;;;;;;;-0.25;100.00;101943.94;6249630;28;20064;-73
2020/12/25 08:22:03;;;;;;;18.63;8.05;;;;;;;-0.24;100.00;101945.66;6249709;28;20049;-73
2020/12/25 08:25:05;;;;;;;17.30;6.80;;;;;;;-0.19;100.00;101956.06;6249924;28;20096;-73
2020/12/25 08:28:06;;;;;;;17.27;6.63;;;;;;;-0.22;100.00;101945.72;6249230;28;20136;-73
2020/12/25 08:31:14;;;;;;;17.27;5.70;;;;;;;-0.20;100.00;101954.31;6248969;28;20056;-73
2020/12/25 08:34:21;;;;;;;14.70;6.88;;;;;;;-0.24;100.00;101956.00;6249198;28;20085;-73
2020/12/25 08:37:22;;;;;;;15.65;6.88;;;;;;;-0.21;100.00;101956.03;6249346;28;20582;-73
2020/12/25 08:40:25;;;;;;;16.38;6.65;;;;;;;-0.18;100.00;101956.09;6248982;28;20054;-73
2020/12/25 08:43:25;;;;;;;18.02;6.60;;;;;;;-0.20;100.00;101968.09;6249536;28;20116;-73
2020/12/25 08:46:27;;;;;;;11.13;5.00;;;;;;;-0.21;100.00;101963.78;6248968;28;20049;-73
2020/12/25 08:49:28;;;;;;;11.73;5.30;;;;;;;-0.20;100.00;101964.66;6248663;28;20049;-73
2020/12/25 08:52:29;;;;;;;16.20;5.70;;;;;;;-0.18;99.16;101969.00;6249357;28;20057;-74
2020/12/25 08:55:30;;;;;;;16.25;6.13;;;;;;;-0.08;99.05;101975.13;6248866;28;20132;-73
2020/12/25 08:58:31;;;;;;;16.60;5.80;;;;;;;-0.07;99.00;101977.72;6248841;28;20053;-73
2020/12/25 09:01:34;;;;;;;15.05;5.43;;;;;;;-0.01;98.41;101971.72;6248184;28;20103;-73
2020/12/25 09:04:35;;;;;;;13.25;5.25;;;;;;;0.04;98.48;101977.81;6248830;28;20099;-73
2020/12/25 09:07:35;;;;;;;16.40;5.93;;;;;;;0.10;98.27;101990.81;6248492;28;20429;-74
2020/12/25 09:10:37;;;;;;;15.30;5.43;;;;;;;0.15;97.89;101993.44;6245415;28;20052;-74
2020/12/25 09:13:38;;;;;;;22.55;5.15;;;;;;;0.20;98.23;101989.19;6246130;28;20049;-74
2020/12/25 09:16:39;;;;;;;11.98;5.43;;;;;;;0.23;97.73;101994.38;6229664;28;20119;-73
2020/12/25 09:19:40;;;;;;;13.98;4.72;;;;;;;0.29;97.85;101998.75;6242613;28;20041;-73
2020/12/25 09:22:41;;;;;;;9.60;4.75;;;;;;;0.35;97.90;102001.38;6240109;28;20049;-74
2020/12/25 09:25:42;;;;;;;10.93;4.78;;;;;;;0.43;98.10;102010.06;6248252;28;20091;-74
2020/12/25 09:28:43;;;;;;;12.20;4.35;;;;;;;0.52;96.63;102010.16;6239448;28;20099;-74
2020/12/25 09:31:44;;;;;;;14.68;3.90;;;;;;;0.49;95.68;101997.19;6247995;28;20536;-74
2020/12/25 09:34:45;;;;;;;12.27;3.35;;;;;;;0.55;95.09;101992.06;6247776;28;20049;-73
2020/12/25 09:37:46;;;;;;;6.93;2.58;;;;;;;0.76;93.36;101997.38;6236306;28;20131;-74
2020/12/25 09:40:48;;;;;;;9.18;2.70;;;;;;;0.86;90.98;102005.22;6244795;28;20060;-73
2020/12/25 09:43:49;;;;;;;8.27;1.80;;;;;;;1.16;88.52;101997.66;6247301;28;20068;-73
2020/12/25 09:46:50;;;;;;;7.57;1.52;;;;;;;1.35;88.02;102000.34;6247557;28;20049;-74
2020/12/25 09:49:51;;;;;;;7.57;1.33;;;;;;;1.48;85.71;102008.16;6246507;28;20045;-74
2020/12/25 09:52:52;;;;;;;8.38;1.85;;;;;;;1.28;86.61;102007.22;6223117;28;20395;-74
2020/12/25 09:55:54;;;;;;;10.85;1.63;;;;;;;1.43;85.94;102003.84;6231128;28;20417;-74
2020/12/25 09:58:54;;;;;;;9.07;2.38;;;;;;;1.29;87.47;102000.31;6240221;28;20053;-74
2020/12/25 10:01:55;;;;;;;10.32;1.85;;;;;;;1.29;85.96;102002.91;6247370;28;20057;-73
2020/12/25 10:04:56;;;;;;;7.97;1.30;;;;;;;1.32;86.61;102002.91;6247354;28;20056;-73
2020/12/25 10:07:57;;;;;;;6.22;1.30;;;;;;;1.70;84.07;101992.72;6240967;28;20050;-69
2020/12/25 10:10:59;;;;;;;7.07;1.50;;;;;;;1.61;83.87;101997.88;6233283;28;20052;-74
2020/12/25 10:14:00;;;;;;;8.23;1.35;;;;;;;1.73;83.74;101996.19;6233211;28;20085;-73
2020/12/25 10:17:00;;;;;;;7.20;1.42;;;;;;;1.64;84.78;101996.16;6234434;28;20038;-73
2020/12/25 10:20:01;;;;;;;12.43;1.52;;;;;;;1.71;84.54;101997.03;6234154;28;20045;-73
2020/12/25 10:23:02;;;;;;;11.18;1.42;;;;;;;1.74;85.13;102002.22;6235508;28;20045;-74
2020/12/25 10:26:04;;;;;;;6.38;1.20;;;;;;;1.89;82.97;102004.00;6232791;28;20038;-74
2020/12/25 10:29:04;;;;;;;8.88;1.33;;;;;;;2.04;82.20;101998.84;6237297;28;20494;-74
2020/12/25 10:32:05;;;;;;;9.52;1.52;;;;;;;2.08;82.26;102005.75;6232592;28;20201;-74
2020/12/25 10:35:07;;;;;;;3.85;1.20;;;;;;;2.02;82.91;102006.63;6233824;28;20037;-70
2020/12/25 10:38:07;;;;;;;8.82;1.50;;;;;;;2.13;82.11;102005.75;6224392;28;20430;-70
2020/12/25 10:41:09;;;;;;;10.63;2.10;;;;;;;2.30;80.91;102006.66;6222016;28;20053;-69
2020/12/25 10:44:10;;;;;;;12.77;1.98;;;;;;;2.15;81.76;102007.50;6236455;28;20049;-70
2020/12/25 10:47:12;;;;;;;7.93;1.50;;;;;;;2.24;82.73;102007.53;6229176;28;20060;-71
2020/12/25 10:50:13;;;;;;;9.75;1.55;;;;;;;2.25;82.64;102013.56;6244693;28;20045;-70
2020/12/25 10:53:13;;;;;;;5.45;1.90;;;;;;;2.21;82.21;102009.25;6244757;28;20041;-71
2020/12/25 10:56:22;;;;;;;7.78;1.52;;;;;;;2.50;81.43;102022.25;6242133;28;20125;-69
2020/12/25 10:59:23;;;;;;;7.63;1.35;;;;;;;2.64;80.71;102019.66;6243029;28;20053;-69
2020/12/25 11:02:24;;;;;;;10.90;2.85;;;;;;;2.46;81.15;102029.16;6230931;28;20049;-69
2020/12/25 11:05:24;;;;;;;6.70;1.60;;;;;;;2.45;80.71;102018.78;6224213;28;20489;-69
2020/12/25 11:08:25;;;;;;;7.78;1.95;;;;;;;2.73;79.39;102024.84;6236731;28;20100;-68
2020/12/25 11:11:29;;;;;;;12.38;2.25;;;;;;;2.71;79.54;102014.44;6245635;28;20426;-69
2020/12/25 11:17:30;;;;;;;7.50;1.60;;;;;;;2.73;79.89;102002.34;6262448;22;20136;-70
2020/12/25 11:20:31;;;;;;;9.50;1.58;;;;;;;2.78;78.69;102010.13;6233063;28;20091;-71
2020/12/25 11:23:32;;;;;;;10.40;1.30;;;;;;;2.95;77.95;102007.50;6245766;28;20123;-71
2020/12/25 11:26:35;;;;;;;4.78;1.50;;;;;;;2.83;78.92;102011.00;6221198;28;20132;-71
2020/12/25 11:29:36;;;;;;;7.63;1.42;;;;;;;3.04;77.58;102010.06;6234720;28;20068;-71
2020/12/25 11:32:37;;;;;;;7.20;1.48;;;;;;;3.18;76.15;102002.25;6246198;28;20128;-70
2020/12/25 11:35:38;;;;;;;14.23;1.35;;;;;;;3.09;76.25;102010.97;6245481;28;20045;-70
2020/12/25 11:38:39;;;;;;;13.13;2.30;;;;;;;3.07;76.87;102004.88;6245451;28;20100;-71
2020/12/25 11:41:41;;;;;;;4.47;1.50;;;;;;;3.10;75.65;102004.91;6245197;28;20057;-71
2020/12/25 11:44:41;;;;;;;3.38;1.10;;;;;;;2.85;78.19;101992.81;6245759;28;20046;-70
2020/12/25 11:47:42;;;;;;;13.65;1.35;;;;;;;2.96;77.02;102002.31;6245005;28;20067;-71
2020/12/25 11:50:43;;;;;;;6.03;1.13;;;;;;;2.81;77.54;102002.31;6245510;28;20414;-70
2020/12/25 11:53:45;;;;;;;10.82;1.88;;;;;;;3.17;75.57;101995.34;6245904;28;20057;-71
2020/12/25 11:56:46;;;;;;;7.43;2.00;;;;;;;3.38;75.24;101999.63;6245479;28;20041;-70
2020/12/25 11:59:47;;;;;;;2.63;0.95;;;;;;;3.30;75.21;102002.22;6245230;28;20049;-70
2020/12/25 12:02:48;;;;;;;4.78;1.88;;;;;;;3.47;74.83;102000.44;6245698;28;20107;-70
2020/12/25 12:05:49;;;;;;;5.50;1.08;;;;;;;3.52;74.61;102001.28;6245745;28;20123;-71
2020/12/25 12:08:51;;;;;;;9.23;1.08;;;;;;;3.59;73.54;102002.16;6248734;28;20045;-70
2020/12/25 12:11:52;;;;;;;3.65;1.08;;;;;;;3.71;71.39;101993.41;6250404;28;20050;-70
2020/12/25 12:14:53;;;;;;;4.70;1.00;;;;;;;3.67;72.02;101983.91;6249669;28;20579;-70
2020/12/25 12:17:54;;;;;;;3.58;0.93;;;;;;;3.88;69.99;101986.38;6249587;28;20137;-70
2020/12/25 12:20:55;;;;;;;7.72;1.20;;;;;;;3.85;70.96;102002.00;6249533;28;20069;-74
2020/12/25 12:23:56;;;;;;;12.02;2.72;;;;;;;3.78;70.45;102008.13;6249520;28;20042;-70
2020/12/25 12:26:58;;;;;;;6.85;1.70;;;;;;;3.81;68.79;101998.56;6249433;28;20050;-70
2020/12/25 12:29:59;;;;;;;11.07;1.38;;;;;;;3.69;69.23;102001.22;6248592;28;20061;-70
2020/12/25 12:33:00;;;;;;;5.95;1.67;;;;;;;3.74;68.07;102006.41;6249793;28;20124;-75
2020/12/25 12:36:03;;;;;;;3.08;0.73;;;;;;;3.49;68.75;102001.28;6244810;28;20072;-70
2020/12/25 12:39:04;;;;;;;4.47;1.10;;;;;;;3.39;71.64;102004.81;6246275;28;20136;-70
2020/12/25 12:42:05;;;;;;;4.35;0.90;;;;;;;3.28;72.60;102004.84;6238521;28;20104;-70
2020/12/25 12:45:09;;;;;;;7.72;1.20;;;;;;;3.29;72.64;102003.09;6247133;28;20041;-70
2020/12/25 12:48:09;;;;;;;7.22;1.10;;;;;;;3.40;70.22;101997.88;6248199;28;20114;-70
2020/12/25 12:51:10;;;;;;;5.85;1.00;;;;;;;3.42;70.63;102003.94;6247868;28;20046;-71
2020/12/25 12:54:11;;;;;;;2.92;1.15;;;;;;;3.39;70.78;102007.41;6248661;28;20049;-70
2020/12/25 12:57:13;;;;;;;6.72;1.40;;;;;;;3.23;71.49;101997.94;6248092;28;20042;-70
2020/12/25 13:00:14;;;;;;;7.65;1.52;;;;;;;3.44;70.88;101997.00;6248515;28;20045;-71
2020/12/25 13:03:14;;;;;;;4.55;1.15;;;;;;;3.45;69.36;102002.19;6248699;28;20498;-71
2020/12/25 13:06:15;;;;;;;3.20;0.90;;;;;;;3.20;71.51;101991.00;6248568;28;20517;-71
2020/12/25 13:09:17;;;;;;;8.88;0.98;;;;;;;3.23;72.73;101984.97;6248313;28;20465;-71
2020/12/25 13:12:18;;;;;;;2.90;0.80;;;;;;;3.11;72.33;101993.63;6230795;28;20045;-72
2020/12/25 13:15:19;;;;;;;4.85;1.00;;;;;;;3.36;71.81;101993.53;6241983;28;20042;-71
2020/12/25 13:18:20;;;;;;;2.42;0.82;;;;;;;3.40;70.84;102000.47;6245663;28;20057;-71
2020/12/25 13:21:22;;;;;;;6.10;0.90;;;;;;;3.22;72.09;101999.66;6245922;28;20047;-71
2020/12/25 13:24:23;;;;;;;9.20;1.17;;;;;;;3.05;74.09;102007.50;6247322;28;20052;-70
2020/12/25 13:27:25;;;;;;;2.78;0.73;;;;;;;3.35;72.70;101997.03;6247561;28;20045;-71
2020/12/25 13:30:25;;;;;;;6.13;1.10;;;;;;;3.31;73.29;101998.75;6247671;28;20049;-70
2020/12/25 13:33:26;;;;;;;5.38;1.10;;;;;;;3.20;74.04;101995.34;6247762;28;20056;-71
2020/12/25 13:36:27;;;;;;;3.80;0.90;;;;;;;3.21;73.48;102000.53;6247550;28;20049;-70
2020/12/25 13:39:28;;;;;;;10.68;1.30;;;;;;;3.29;73.54;101995.31;6247619;28;20049;-70
2020/12/25 13:42:29;;;;;;;7.22;1.17;;;;;;;3.25;73.22;101998.78;6247583;28;20049;-70
2020/12/25 13:45:30;;;;;;;10.13;1.42;;;;;;;3.22;72.83;102004.84;6247820;28;20052;-70
2020/12/25 13:48:32;;;;;;;6.22;1.90;;;;;;;3.22;71.04;102007.44;6228352;28;20049;-70
2020/12/25 13:51:34;;;;;;;2.83;0.85;;;;;;;3.04;73.12;102010.97;6222484;28;20438;-71
2020/12/25 13:54:34;;;;;;;10.25;1.75;;;;;;;3.04;73.53;101991.91;6223193;28;20046;-71
2020/12/25 13:57:36;;;;;;;7.22;1.70;;;;;;;2.86;74.99;102002.31;6232358;28;20395;-70
2020/12/25 14:00:37;;;;;;;4.07;1.15;;;;;;;3.22;71.80;101997.06;6241713;28;20410;-70
2020/12/25 14:03:40;;;;;;;10.70;2.20;;;;;;;3.00;71.92;102009.25;6240225;28;20414;-71
2020/12/25 14:06:40;;;;;;;7.43;1.88;;;;;;;3.01;72.04;102010.97;6246255;28;20052;-70
2020/12/25 14:09:41;;;;;;;9.35;0.90;;;;;;;2.95;71.79;102011.00;6246757;28;20054;-70